createdAt,value
2023-03-16T00:07:56.977Z,3.15
2023-03-16T00:17:57.019Z,3.11
2023-03-16T00:27:58.387Z,2.99
2023-03-16T00:37:57.460Z,2.78
2023-03-16T00:47:57.601Z,2.92
2023-03-16T00:57:57.648Z,3.17
2023-03-16T01:07:58.999Z,3.10
2023-03-16T01:17:58.050Z,2.59
2023-03-16T01:27:58.337Z,2.85
2023-03-16T01:37:58.390Z,3.03
2023-03-16T01:47:58.750Z,2.59
2023-03-16T01:57:58.922Z,2.10
2023-03-16T02:07:59.244Z,1.93
2023-03-16T02:17:59.104Z,1.88
2023-03-16T02:27:59.470Z,1.68
2023-03-16T02:37:59.595Z,1.66
2023-03-16T02:48:00.661Z,1.70
2023-03-16T02:57:59.915Z,1.55
2023-03-16T03:08:00.206Z,1.36
2023-03-16T03:18:00.297Z,0.87
2023-03-16T03:28:00.558Z,0.98
2023-03-16T03:38:00.814Z,1.34
2023-03-16T03:48:00.931Z,1.87
2023-03-16T03:58:01.006Z,2.16
2023-03-16T04:08:01.295Z,1.90
2023-03-16T04:18:01.352Z,2.20
2023-03-16T04:28:01.671Z,2.12
2023-03-16T04:38:01.709Z,2.14
2023-03-16T04:48:02.964Z,2.00
2023-03-16T04:58:02.285Z,2.02
2023-03-16T05:08:02.694Z,2.03
2023-03-16T05:18:02.539Z,1.98
2023-03-16T05:28:02.782Z,2.07
2023-03-16T05:38:03.017Z,2.12
2023-03-16T05:48:03.356Z,2.02
2023-03-16T05:58:05.584Z,1.88
2023-03-16T06:08:03.639Z,1.91
2023-03-16T06:18:03.890Z,2.18
2023-03-16T06:28:04.200Z,2.23
2023-03-16T06:38:04.236Z,2.38
2023-03-16T06:48:04.591Z,2.84
2023-03-16T06:58:04.654Z,3.24
2023-03-16T07:08:04.998Z,3.68
2023-03-16T07:18:05.053Z,3.76
2023-03-16T07:28:05.330Z,4.06
2023-03-16T07:38:05.361Z,4.34
2023-03-16T07:48:05.683Z,4.77
2023-03-16T07:58:05.709Z,4.97
2023-03-16T08:08:06.052Z,5.63
2023-03-16T08:18:06.108Z,6.12
2023-03-16T08:28:06.437Z,6.51
2023-03-16T08:38:06.480Z,7.09
2023-03-16T08:48:07.842Z,7.90
2023-03-16T08:58:06.867Z,8.01
2023-03-16T09:08:07.182Z,8.53
2023-03-16T09:18:07.213Z,8.66
2023-03-16T09:28:07.533Z,8.50
2023-03-16T09:38:07.560Z,9.66
2023-03-16T09:48:07.800Z,9.32
2023-03-16T09:58:08.054Z,10.45
2023-03-16T10:08:08.578Z,10.89
2023-03-16T10:18:08.407Z,11.00
2023-03-16T10:28:08.744Z,11.83
2023-03-16T10:38:08.773Z,12.04
2023-03-16T10:48:09.122Z,11.95
2023-03-16T10:58:09.197Z,12.47
2023-03-16T11:08:09.533Z,12.75
2023-03-16T11:18:09.564Z,13.92
2023-03-16T11:28:09.874Z,14.07
2023-03-16T11:38:09.906Z,14.03
2023-03-16T11:48:10.239Z,14.73
2023-03-16T11:58:10.253Z,14.55
2023-03-16T12:08:10.504Z,13.46
2023-03-16T12:18:10.737Z,15.27
2023-03-16T12:28:11.058Z,16.15
2023-03-16T12:38:11.104Z,16.64
2023-03-16T12:48:11.440Z,17.11
2023-03-16T12:58:11.490Z,16.81
2023-03-16T13:08:11.815Z,17.38
2023-03-16T13:18:11.854Z,17.16
2023-03-16T13:28:12.205Z,17.51
2023-03-16T13:38:12.252Z,17.31
2023-03-16T13:48:12.462Z,17.49
2023-03-16T13:58:12.494Z,17.74
2023-03-16T14:08:12.829Z,17.68
2023-03-16T14:18:12.864Z,18.18
2023-03-16T14:28:13.190Z,18.33
2023-03-16T14:38:13.314Z,18.08
2023-03-16T14:48:13.468Z,18.02
2023-03-16T14:58:13.553Z,17.96
2023-03-16T15:08:13.624Z,18.25
2023-03-16T15:18:13.850Z,18.11
2023-03-16T15:28:16.581Z,17.56
2023-03-16T15:38:14.240Z,17.43
2023-03-16T15:48:14.578Z,17.08
2023-03-16T15:58:14.628Z,16.68
2023-03-16T16:08:14.934Z,15.90
2023-03-16T16:18:21.445Z,14.62
2023-03-16T16:28:16.289Z,14.37
2023-03-16T16:38:17.352Z,13.88
2023-03-16T16:48:15.402Z,13.55
2023-03-16T16:58:24.286Z,13.54
2023-03-16T17:08:16.816Z,12.92
2023-03-16T17:18:15.927Z,12.64
2023-03-16T17:28:16.907Z,12.27
2023-03-16T17:38:16.465Z,12.24
2023-03-16T17:48:16.371Z,11.85
2023-03-16T17:58:16.916Z,11.75
2023-03-16T18:08:17.085Z,10.94
2023-03-16T18:18:18.334Z,10.73
2023-03-16T18:28:17.375Z,10.22
2023-03-16T18:38:18.358Z,9.72
2023-03-16T18:48:17.507Z,9.32
2023-03-16T18:58:17.875Z,8.94
2023-03-16T19:08:18.208Z,8.63
2023-03-16T19:18:20.465Z,8.56
2023-03-16T19:28:18.559Z,9.51
2023-03-16T19:38:21.319Z,9.79
2023-03-16T19:48:18.778Z,9.29
2023-03-16T19:58:20.337Z,9.39
2023-03-16T20:08:19.271Z,9.38
2023-03-16T20:18:20.235Z,9.26
2023-03-16T20:28:20.208Z,9.40
2023-03-16T20:38:19.703Z,9.43
2023-03-16T20:48:19.662Z,9.75
2023-03-16T20:58:19.917Z,9.65
2023-03-16T21:08:20.052Z,9.54
2023-03-16T21:18:20.446Z,9.20
2023-03-16T21:28:20.197Z,8.96
2023-03-16T21:38:21.810Z,9.02
2023-03-16T21:48:20.692Z,8.96
2023-03-16T21:58:21.009Z,9.24
2023-03-16T22:08:21.048Z,9.61
2023-03-16T22:18:21.374Z,9.56
2023-03-16T22:28:21.403Z,9.20
2023-03-16T22:38:21.747Z,9.40
2023-03-16T22:48:21.906Z,9.51
2023-03-16T22:58:22.126Z,9.43
2023-03-16T23:08:22.942Z,10.08
2023-03-16T23:18:22.623Z,9.54
2023-03-16T23:28:22.478Z,9.18
2023-03-16T23:38:23.872Z,9.28
2023-03-16T23:48:22.899Z,9.53
2023-03-16T23:58:23.227Z,10.04
